sensor_id;sensor_type;location;lat;lon;timestamp;temperature;humidity
35085;SHT85;21267;51.032;6.998;2022-08-19T00:01:41;20.15;80.34
35085;SHT85;21267;51.032;6.998;2022-08-19T00:04:10;19.95;80.85
35085;SHT85;21267;51.032;6.998;2022-08-19T00:06:39;19.97;80.98
35085;SHT85;21267;51.032;6.998;2022-08-19T00:09:09;19.71;81.55
35085;SHT85;21267;51.032;6.998;2022-08-19T00:11:37;19.60;82.05
35085;SHT85;21267;51.032;6.998;2022-08-19T00:14:06;19.82;81.77
35085;SHT85;21267;51.032;6.998;2022-08-19T00:16:33;19.70;81.52
35085;SHT85;21267;51.032;6.998;2022-08-19T00:19:00;19.75;81.52
35085;SHT85;21267;51.032;6.998;2022-08-19T00:21:27;19.56;82.14
35085;SHT85;21267;51.032;6.998;2022-08-19T00:23:54;19.53;82.36
35085;SHT85;21267;51.032;6.998;2022-08-19T00:26:26;19.61;82.37
35085;SHT85;21267;51.032;6.998;2022-08-19T00:28:53;19.45;82.74
35085;SHT85;21267;51.032;6.998;2022-08-19T00:31:21;19.50;82.49
35085;SHT85;21267;51.032;6.998;2022-08-19T00:33:47;19.61;82.21
35085;SHT85;21267;51.032;6.998;2022-08-19T00:36:17;19.38;82.71
35085;SHT85;21267;51.032;6.998;2022-08-19T00:38:44;19.47;82.62
35085;SHT85;21267;51.032;6.998;2022-08-19T00:41:15;19.46;82.61
35085;SHT85;21267;51.032;6.998;2022-08-19T00:44:03;19.53;82.33
35085;SHT85;21267;51.032;6.998;2022-08-19T00:46:32;19.42;82.91
35085;SHT85;21267;51.032;6.998;2022-08-19T00:49:00;19.39;82.80
35085;SHT85;21267;51.032;6.998;2022-08-19T00:51:30;19.50;82.67
35085;SHT85;21267;51.032;6.998;2022-08-19T00:53:59;19.23;83.43
35085;SHT85;21267;51.032;6.998;2022-08-19T00:56:28;19.12;83.84
35085;SHT85;21267;51.032;6.998;2022-08-19T00:58:56;18.99;84.06
35085;SHT85;21267;51.032;6.998;2022-08-19T01:01:25;19.35;83.00
35085;SHT85;21267;51.032;6.998;2022-08-19T01:03:51;19.30;83.12
35085;SHT85;21267;51.032;6.998;2022-08-19T01:06:25;19.26;83.34
35085;SHT85;21267;51.032;6.998;2022-08-19T01:08:52;19.18;83.22
35085;SHT85;21267;51.032;6.998;2022-08-19T01:11:19;19.03;83.94
35085;SHT85;21267;51.032;6.998;2022-08-19T01:13:46;19.10;84.17
35085;SHT85;21267;51.032;6.998;2022-08-19T01:16:16;19.10;83.88
35085;SHT85;21267;51.032;6.998;2022-08-19T01:18:44;19.15;84.17
35085;SHT85;21267;51.032;6.998;2022-08-19T01:23:50;19.09;83.67
35085;SHT85;21267;51.032;6.998;2022-08-19T01:26:20;18.98;84.38
35085;SHT85;21267;51.032;6.998;2022-08-19T01:28:51;18.82;84.60
35085;SHT85;21267;51.032;6.998;2022-08-19T01:31:27;18.75;85.13
35085;SHT85;21267;51.032;6.998;2022-08-19T01:33:59;18.52;85.55
35085;SHT85;21267;51.032;6.998;2022-08-19T01:36:39;18.54;85.52
35085;SHT85;21267;51.032;6.998;2022-08-19T01:39:11;18.78;84.77
35085;SHT85;21267;51.032;6.998;2022-08-19T01:41:38;18.77;84.47
35085;SHT85;21267;51.032;6.998;2022-08-19T01:44:07;18.95;83.53
35085;SHT85;21267;51.032;6.998;2022-08-19T01:46:44;18.80;84.31
35085;SHT85;21267;51.032;6.998;2022-08-19T01:49:11;18.67;84.62
35085;SHT85;21267;51.032;6.998;2022-08-19T01:51:38;18.71;84.32
35085;SHT85;21267;51.032;6.998;2022-08-19T01:54:10;18.75;84.41
35085;SHT85;21267;51.032;6.998;2022-08-19T01:56:37;19.02;84.04
35085;SHT85;21267;51.032;6.998;2022-08-19T01:59:13;19.03;83.47
35085;SHT85;21267;51.032;6.998;2022-08-19T02:01:40;18.48;85.40
35085;SHT85;21267;51.032;6.998;2022-08-19T02:04:07;18.47;85.68
35085;SHT85;21267;51.032;6.998;2022-08-19T02:06:34;18.57;85.43
35085;SHT85;21267;51.032;6.998;2022-08-19T02:09:02;18.13;86.22
35085;SHT85;21267;51.032;6.998;2022-08-19T02:11:31;18.09;86.70
35085;SHT85;21267;51.032;6.998;2022-08-19T02:14:01;18.03;86.48
35085;SHT85;21267;51.032;6.998;2022-08-19T02:16:29;18.23;86.18
35085;SHT85;21267;51.032;6.998;2022-08-19T02:18:56;18.30;85.68
35085;SHT85;21267;51.032;6.998;2022-08-19T02:21:23;18.36;85.70
35085;SHT85;21267;51.032;6.998;2022-08-19T02:23:50;18.57;85.17
35085;SHT85;21267;51.032;6.998;2022-08-19T02:26:17;18.38;85.29
35085;SHT85;21267;51.032;6.998;2022-08-19T02:28:44;18.21;85.59
35085;SHT85;21267;51.032;6.998;2022-08-19T02:31:18;18.34;85.60
35085;SHT85;21267;51.032;6.998;2022-08-19T02:33:45;18.26;85.64
35085;SHT85;21267;51.032;6.998;2022-08-19T02:36:14;18.33;85.41
35085;SHT85;21267;51.032;6.998;2022-08-19T02:38:41;18.70;84.38
35085;SHT85;21267;51.032;6.998;2022-08-19T02:41:17;18.70;84.07
35085;SHT85;21267;51.032;6.998;2022-08-19T02:43:45;18.60;84.60
35085;SHT85;21267;51.032;6.998;2022-08-19T02:46:32;18.23;85.55
35085;SHT85;21267;51.032;6.998;2022-08-19T02:49:02;18.19;85.53
35085;SHT85;21267;51.032;6.998;2022-08-19T02:51:32;18.05;86.08
35085;SHT85;21267;51.032;6.998;2022-08-19T02:54:00;18.09;85.87
35085;SHT85;21267;51.032;6.998;2022-08-19T02:56:27;18.10;85.62
35085;SHT85;21267;51.032;6.998;2022-08-19T02:58:55;18.12;85.74
35085;SHT85;21267;51.032;6.998;2022-08-19T03:01:27;18.17;85.59
35085;SHT85;21267;51.032;6.998;2022-08-19T03:03:55;18.19;85.38
35085;SHT85;21267;51.032;6.998;2022-08-19T03:06:22;18.17;85.50
35085;SHT85;21267;51.032;6.998;2022-08-19T03:08:49;18.47;84.56
35085;SHT85;21267;51.032;6.998;2022-08-19T03:11:22;18.44;84.75
35085;SHT85;21267;51.032;6.998;2022-08-19T03:13:49;18.55;85.01
35085;SHT85;21267;51.032;6.998;2022-08-19T03:16:21;18.23;85.32
35085;SHT85;21267;51.032;6.998;2022-08-19T03:18:48;18.29;85.64
35085;SHT85;21267;51.032;6.998;2022-08-19T03:21:19;18.12;85.61
35085;SHT85;21267;51.032;6.998;2022-08-19T03:23:46;18.47;84.82
35085;SHT85;21267;51.032;6.998;2022-08-19T03:26:14;18.06;85.67
35085;SHT85;21267;51.032;6.998;2022-08-19T03:28:44;18.26;85.30
35085;SHT85;21267;51.032;6.998;2022-08-19T03:31:26;18.43;84.72
35085;SHT85;21267;51.032;6.998;2022-08-19T03:34:20;18.38;84.57
35085;SHT85;21267;51.032;6.998;2022-08-19T03:36:47;18.19;85.34
35085;SHT85;21267;51.032;6.998;2022-08-19T03:39:15;18.05;85.73
35085;SHT85;21267;51.032;6.998;2022-08-19T03:41:44;18.03;85.76
35085;SHT85;21267;51.032;6.998;2022-08-19T03:44:15;18.03;85.77
35085;SHT85;21267;51.032;6.998;2022-08-19T03:46:46;18.08;85.97
35085;SHT85;21267;51.032;6.998;2022-08-19T03:49:13;18.08;85.61
35085;SHT85;21267;51.032;6.998;2022-08-19T03:51:41;18.06;85.47
35085;SHT85;21267;51.032;6.998;2022-08-19T03:54:11;18.26;85.21
35085;SHT85;21267;51.032;6.998;2022-08-19T03:56:41;18.10;85.58
35085;SHT85;21267;51.032;6.998;2022-08-19T03:59:11;17.86;86.33
35085;SHT85;21267;51.032;6.998;2022-08-19T04:01:39;17.83;86.27
35085;SHT85;21267;51.032;6.998;2022-08-19T04:04:07;17.96;86.25
35085;SHT85;21267;51.032;6.998;2022-08-19T04:06:37;17.93;86.09
35085;SHT85;21267;51.032;6.998;2022-08-19T04:09:08;18.09;85.70
35085;SHT85;21267;51.032;6.998;2022-08-19T04:11:37;18.13;85.31
35085;SHT85;21267;51.032;6.998;2022-08-19T04:14:11;18.23;85.31
35085;SHT85;21267;51.032;6.998;2022-08-19T04:16:41;18.19;85.20
35085;SHT85;21267;51.032;6.998;2022-08-19T04:19:07;18.08;85.53
35085;SHT85;21267;51.032;6.998;2022-08-19T04:21:34;17.87;86.28
35085;SHT85;21267;51.032;6.998;2022-08-19T04:24:01;18.02;86.29
35085;SHT85;21267;51.032;6.998;2022-08-19T04:26:31;18.34;85.05
35085;SHT85;21267;51.032;6.998;2022-08-19T04:29:00;18.14;85.33
35085;SHT85;21267;51.032;6.998;2022-08-19T04:31:30;17.99;85.76
35085;SHT85;21267;51.032;6.998;2022-08-19T04:33:59;18.16;85.51
35085;SHT85;21267;51.032;6.998;2022-08-19T04:36:28;17.91;86.06
35085;SHT85;21267;51.032;6.998;2022-08-19T04:38:57;18.02;86.06
35085;SHT85;21267;51.032;6.998;2022-08-19T04:41:25;17.99;85.99
35085;SHT85;21267;51.032;6.998;2022-08-19T04:44:11;18.05;85.84
35085;SHT85;21267;51.032;6.998;2022-08-19T04:46:38;18.12;85.58
35085;SHT85;21267;51.032;6.998;2022-08-19T04:49:19;18.09;85.68
35085;SHT85;21267;51.032;6.998;2022-08-19T04:51:49;17.99;85.58
35085;SHT85;21267;51.032;6.998;2022-08-19T04:54:18;17.81;86.51
35085;SHT85;21267;51.032;6.998;2022-08-19T04:57:05;17.87;86.17
35085;SHT85;21267;51.032;6.998;2022-08-19T04:59:34;18.02;86.09
35085;SHT85;21267;51.032;6.998;2022-08-19T05:02:00;18.00;85.95
35085;SHT85;21267;51.032;6.998;2022-08-19T05:04:27;18.00;85.88
35085;SHT85;21267;51.032;6.998;2022-08-19T05:06:57;17.86;86.37
35085;SHT85;21267;51.032;6.998;2022-08-19T05:09:27;18.05;85.74
35085;SHT85;21267;51.032;6.998;2022-08-19T05:12:13;17.95;86.15
35085;SHT85;21267;51.032;6.998;2022-08-19T05:14:40;18.08;85.82
35085;SHT85;21267;51.032;6.998;2022-08-19T05:17:06;18.09;86.14
35085;SHT85;21267;51.032;6.998;2022-08-19T05:19:53;18.20;85.87
35085;SHT85;21267;51.032;6.998;2022-08-19T05:22:38;18.65;84.70
35085;SHT85;21267;51.032;6.998;2022-08-19T05:25:08;18.29;85.33
35085;SHT85;21267;51.032;6.998;2022-08-19T05:27:39;18.54;84.73
35085;SHT85;21267;51.032;6.998;2022-08-19T05:30:06;18.77;84.28
35085;SHT85;21267;51.032;6.998;2022-08-19T05:32:33;18.68;84.44
35085;SHT85;21267;51.032;6.998;2022-08-19T05:35:00;18.94;83.68
35085;SHT85;21267;51.032;6.998;2022-08-19T05:37:26;19.01;83.88
35085;SHT85;21267;51.032;6.998;2022-08-19T05:39:54;19.24;84.06
35085;SHT85;21267;51.032;6.998;2022-08-19T05:42:21;19.43;84.99
35085;SHT85;21267;51.032;6.998;2022-08-19T05:44:50;19.36;85.43
35085;SHT85;21267;51.032;6.998;2022-08-19T05:47:16;19.35;85.71
35085;SHT85;21267;51.032;6.998;2022-08-19T05:49:45;19.28;86.26
35085;SHT85;21267;51.032;6.998;2022-08-19T05:52:12;19.09;87.08
35085;SHT85;21267;51.032;6.998;2022-08-19T05:54:43;19.09;87.37
35085;SHT85;21267;51.032;6.998;2022-08-19T05:57:17;19.13;87.27
35085;SHT85;21267;51.032;6.998;2022-08-19T05:59:44;19.10;87.37
35085;SHT85;21267;51.032;6.998;2022-08-19T06:02:12;19.15;87.49
35085;SHT85;21267;51.032;6.998;2022-08-19T06:04:39;19.18;87.40
35085;SHT85;21267;51.032;6.998;2022-08-19T06:07:09;19.15;87.44
35085;SHT85;21267;51.032;6.998;2022-08-19T06:09:38;19.26;87.14
35085;SHT85;21267;51.032;6.998;2022-08-19T06:12:05;19.39;86.92
35085;SHT85;21267;51.032;6.998;2022-08-19T06:14:32;19.38;86.82
35085;SHT85;21267;51.032;6.998;2022-08-19T06:17:05;19.36;86.91
35085;SHT85;21267;51.032;6.998;2022-08-19T06:19:32;19.29;87.09
35085;SHT85;21267;51.032;6.998;2022-08-19T06:21:59;19.43;86.84
35085;SHT85;21267;51.032;6.998;2022-08-19T06:24:28;19.51;86.55
35085;SHT85;21267;51.032;6.998;2022-08-19T06:26:55;19.70;85.99
35085;SHT85;21267;51.032;6.998;2022-08-19T06:33:38;19.61;86.01
35085;SHT85;21267;51.032;6.998;2022-08-19T06:36:07;19.67;85.88
35085;SHT85;21267;51.032;6.998;2022-08-19T06:38:33;19.84;85.30
35085;SHT85;21267;51.032;6.998;2022-08-19T06:41:04;19.90;85.01
35085;SHT85;21267;51.032;6.998;2022-08-19T06:43:33;19.82;84.96
35085;SHT85;21267;51.032;6.998;2022-08-19T06:46:00;19.77;85.34
35085;SHT85;21267;51.032;6.998;2022-08-19T06:48:27;19.92;85.01
35085;SHT85;21267;51.032;6.998;2022-08-19T06:50:54;19.95;84.70
35085;SHT85;21267;51.032;6.998;2022-08-19T06:53:20;20.22;84.26
35085;SHT85;21267;51.032;6.998;2022-08-19T06:55:48;20.25;84.07
35085;SHT85;21267;51.032;6.998;2022-08-19T06:58:23;20.18;83.75
35085;SHT85;21267;51.032;6.998;2022-08-19T07:00:51;20.14;84.35
35085;SHT85;21267;51.032;6.998;2022-08-19T07:03:18;20.25;83.85
35085;SHT85;21267;51.032;6.998;2022-08-19T07:05:44;20.40;83.43
35085;SHT85;21267;51.032;6.998;2022-08-19T07:08:13;20.57;82.74
35085;SHT85;21267;51.032;6.998;2022-08-19T07:10:43;20.62;82.85
35085;SHT85;21267;51.032;6.998;2022-08-19T07:13:10;20.65;82.77
35085;SHT85;21267;51.032;6.998;2022-08-19T07:15:37;20.70;82.56
35085;SHT85;21267;51.032;6.998;2022-08-19T07:18:05;20.77;82.36
35085;SHT85;21267;51.032;6.998;2022-08-19T07:20:32;20.77;82.26
35085;SHT85;21267;51.032;6.998;2022-08-19T07:22:59;20.91;82.02
35085;SHT85;21267;51.032;6.998;2022-08-19T07:25:26;20.72;82.66
35085;SHT85;21267;51.032;6.998;2022-08-19T07:27:58;20.67;82.96
35085;SHT85;21267;51.032;6.998;2022-08-19T07:30:27;20.87;82.22
35085;SHT85;21267;51.032;6.998;2022-08-19T07:32:54;20.96;82.24
35085;SHT85;21267;51.032;6.998;2022-08-19T07:35:21;21.00;82.07
35085;SHT85;21267;51.032;6.998;2022-08-19T07:37:48;20.97;81.69
35085;SHT85;21267;51.032;6.998;2022-08-19T07:40:15;20.91;82.04
35085;SHT85;21267;51.032;6.998;2022-08-19T07:42:42;20.86;81.96
35085;SHT85;21267;51.032;6.998;2022-08-19T07:45:09;20.77;82.36
35085;SHT85;21267;51.032;6.998;2022-08-19T07:47:36;20.72;82.37
35085;SHT85;21267;51.032;6.998;2022-08-19T07:50:17;20.72;82.32
35085;SHT85;21267;51.032;6.998;2022-08-19T07:52:45;20.90;81.77
35085;SHT85;21267;51.032;6.998;2022-08-19T07:55:17;21.08;81.23
35085;SHT85;21267;51.032;6.998;2022-08-19T07:58:04;20.86;81.62
35085;SHT85;21267;51.032;6.998;2022-08-19T08:00:31;21.20;80.68
35085;SHT85;21267;51.032;6.998;2022-08-19T08:02:58;21.07;81.05
35085;SHT85;21267;51.032;6.998;2022-08-19T08:05:24;21.10;80.74
35085;SHT85;21267;51.032;6.998;2022-08-19T08:08:11;21.48;79.86
35085;SHT85;21267;51.032;6.998;2022-08-19T08:10:57;22.00;78.17
35085;SHT85;21267;51.032;6.998;2022-08-19T08:13:24;22.23;77.51
35085;SHT85;21267;51.032;6.998;2022-08-19T08:15:52;21.86;78.11
35085;SHT85;21267;51.032;6.998;2022-08-19T08:18:21;22.19;77.37
35085;SHT85;21267;51.032;6.998;2022-08-19T08:20:53;22.26;76.77
35085;SHT85;21267;51.032;6.998;2022-08-19T08:23:20;21.97;77.93
35085;SHT85;21267;51.032;6.998;2022-08-19T08:25:50;22.04;77.60
35085;SHT85;21267;51.032;6.998;2022-08-19T08:28:18;21.66;78.95
35085;SHT85;21267;51.032;6.998;2022-08-19T08:30:46;21.56;79.33
35085;SHT85;21267;51.032;6.998;2022-08-19T08:33:21;21.90;78.49
35085;SHT85;21267;51.032;6.998;2022-08-19T08:36:09;22.03;78.60
35085;SHT85;21267;51.032;6.998;2022-08-19T08:38:37;22.33;77.63
35085;SHT85;21267;51.032;6.998;2022-08-19T08:41:37;22.48;76.97
35085;SHT85;21267;51.032;6.998;2022-08-19T08:44:23;22.80;76.36
35085;SHT85;21267;51.032;6.998;2022-08-19T08:46:55;22.88;75.55
35085;SHT85;21267;51.032;6.998;2022-08-19T08:49:41;22.72;76.36
35085;SHT85;21267;51.032;6.998;2022-08-19T08:52:15;23.15;75.09
35085;SHT85;21267;51.032;6.998;2022-08-19T08:54:46;22.99;75.32
35085;SHT85;21267;51.032;6.998;2022-08-19T08:57:43;23.25;74.47
35085;SHT85;21267;51.032;6.998;2022-08-19T09:00:15;23.53;74.14
35085;SHT85;21267;51.032;6.998;2022-08-19T09:02:43;24.11;72.38
35085;SHT85;21267;51.032;6.998;2022-08-19T09:05:17;23.71;72.89
35085;SHT85;21267;51.032;6.998;2022-08-19T09:10:59;24.96;69.84
35085;SHT85;21267;51.032;6.998;2022-08-19T09:13:48;25.38;68.63
35085;SHT85;21267;51.032;6.998;2022-08-19T09:16:20;26.23;66.06
35085;SHT85;21267;51.032;6.998;2022-08-19T09:18:56;26.37;65.28
35085;SHT85;21267;51.032;6.998;2022-08-19T09:21:25;26.28;65.63
35085;SHT85;21267;51.032;6.998;2022-08-19T09:23:59;25.43;67.77
35085;SHT85;21267;51.032;6.998;2022-08-19T09:26:29;25.06;67.21
35085;SHT85;21267;51.032;6.998;2022-08-19T09:29:16;24.45;69.17
35085;SHT85;21267;51.032;6.998;2022-08-19T09:31:43;24.32;69.19
35085;SHT85;21267;51.032;6.998;2022-08-19T09:34:10;24.72;68.33
35085;SHT85;21267;51.032;6.998;2022-08-19T09:36:47;25.16;66.42
35085;SHT85;21267;51.032;6.998;2022-08-19T09:39:16;25.60;65.30
35085;SHT85;21267;51.032;6.998;2022-08-19T09:41:43;25.03;66.38
35085;SHT85;21267;51.032;6.998;2022-08-19T09:44:14;25.28;66.02
35085;SHT85;21267;51.032;6.998;2022-08-19T09:46:41;25.34;65.84
35085;SHT85;21267;51.032;6.998;2022-08-19T09:49:07;25.75;64.66
35085;SHT85;21267;51.032;6.998;2022-08-19T09:51:34;25.38;65.07
35085;SHT85;21267;51.032;6.998;2022-08-19T09:54:02;25.22;65.46
35085;SHT85;21267;51.032;6.998;2022-08-19T09:56:31;25.60;63.65
35085;SHT85;21267;51.032;6.998;2022-08-19T09:59:00;26.62;61.32
35085;SHT85;21267;51.032;6.998;2022-08-19T10:01:29;25.82;62.09
35085;SHT85;21267;51.032;6.998;2022-08-19T10:03:57;25.85;62.34
35085;SHT85;21267;51.032;6.998;2022-08-19T10:06:27;26.60;60.86
35085;SHT85;21267;51.032;6.998;2022-08-19T10:09:13;27.22;59.58
35085;SHT85;21267;51.032;6.998;2022-08-19T10:11:41;27.00;59.25
35085;SHT85;21267;51.032;6.998;2022-08-19T10:14:19;27.90;57.36
35085;SHT85;21267;51.032;6.998;2022-08-19T10:16:48;27.18;57.57
35085;SHT85;21267;51.032;6.998;2022-08-19T10:19:15;26.94;58.95
35085;SHT85;21267;51.032;6.998;2022-08-19T10:21:52;28.03;55.11
35085;SHT85;21267;51.032;6.998;2022-08-19T10:24:20;28.04;55.07
35085;SHT85;21267;51.032;6.998;2022-08-19T10:26:50;27.57;55.86
35085;SHT85;21267;51.032;6.998;2022-08-19T10:29:24;28.14;54.70
35085;SHT85;21267;51.032;6.998;2022-08-19T10:32:02;28.27;54.61
35085;SHT85;21267;51.032;6.998;2022-08-19T10:34:30;28.00;54.87
35085;SHT85;21267;51.032;6.998;2022-08-19T10:36:58;28.61;54.40
35085;SHT85;21267;51.032;6.998;2022-08-19T10:39:29;28.60;53.95
35085;SHT85;21267;51.032;6.998;2022-08-19T10:41:57;30.20;51.62
35085;SHT85;21267;51.032;6.998;2022-08-19T10:44:24;30.21;50.69
35085;SHT85;21267;51.032;6.998;2022-08-19T10:46:58;29.03;52.92
35085;SHT85;21267;51.032;6.998;2022-08-19T10:49:25;28.44;53.67
35085;SHT85;21267;51.032;6.998;2022-08-19T10:51:53;28.44;54.14
35085;SHT85;21267;51.032;6.998;2022-08-19T10:54:46;28.12;55.68
35085;SHT85;21267;51.032;6.998;2022-08-19T10:57:34;29.06;52.99
35085;SHT85;21267;51.032;6.998;2022-08-19T11:00:22;28.21;54.18
35085;SHT85;21267;51.032;6.998;2022-08-19T11:02:50;27.70;55.63
35085;SHT85;21267;51.032;6.998;2022-08-19T11:05:18;27.57;55.85
35085;SHT85;21267;51.032;6.998;2022-08-19T11:07:45;28.33;54.41
35085;SHT85;21267;51.032;6.998;2022-08-19T11:10:14;27.92;54.67
35085;SHT85;21267;51.032;6.998;2022-08-19T11:12:46;28.16;54.79
35085;SHT85;21267;51.032;6.998;2022-08-19T11:15:13;27.61;55.53
35085;SHT85;21267;51.032;6.998;2022-08-19T11:17:40;26.81;57.93
35085;SHT85;21267;51.032;6.998;2022-08-19T11:20:08;27.28;56.33
35085;SHT85;21267;51.032;6.998;2022-08-19T11:22:35;27.92;54.82
35085;SHT85;21267;51.032;6.998;2022-08-19T11:25:09;27.17;56.47
35085;SHT85;21267;51.032;6.998;2022-08-19T11:27:40;26.37;58.52
35085;SHT85;21267;51.032;6.998;2022-08-19T11:30:12;26.93;57.13
35085;SHT85;21267;51.032;6.998;2022-08-19T11:32:40;27.99;55.10
35085;SHT85;21267;51.032;6.998;2022-08-19T11:35:14;27.53;54.71
35085;SHT85;21267;51.032;6.998;2022-08-19T11:37:42;27.15;55.97
35085;SHT85;21267;51.032;6.998;2022-08-19T11:40:09;27.30;56.50
35085;SHT85;21267;51.032;6.998;2022-08-19T11:42:35;28.81;53.43
35085;SHT85;21267;51.032;6.998;2022-08-19T11:45:21;28.91;52.76
35085;SHT85;21267;51.032;6.998;2022-08-19T11:47:48;29.49;51.42
35085;SHT85;21267;51.032;6.998;2022-08-19T11:50:15;29.36;51.03
35085;SHT85;21267;51.032;6.998;2022-08-19T11:52:43;29.90;50.17
35085;SHT85;21267;51.032;6.998;2022-08-19T11:55:12;29.57;50.33
35085;SHT85;21267;51.032;6.998;2022-08-19T11:57:39;29.40;50.87
35085;SHT85;21267;51.032;6.998;2022-08-19T12:00:07;29.39;50.77
35085;SHT85;21267;51.032;6.998;2022-08-19T12:02:35;29.76;50.73
35085;SHT85;21267;51.032;6.998;2022-08-19T12:05:02;29.83;50.11
35085;SHT85;21267;51.032;6.998;2022-08-19T12:07:33;30.01;49.96
35085;SHT85;21267;51.032;6.998;2022-08-19T12:10:00;29.93;48.64
35085;SHT85;21267;51.032;6.998;2022-08-19T12:12:29;29.46;49.17
35085;SHT85;21267;51.032;6.998;2022-08-19T12:14:55;29.46;49.07
35085;SHT85;21267;51.032;6.998;2022-08-19T12:17:26;29.98;47.98
35085;SHT85;21267;51.032;6.998;2022-08-19T12:19:53;29.45;48.76
35085;SHT85;21267;51.032;6.998;2022-08-19T12:22:20;28.91;49.38
35085;SHT85;21267;51.032;6.998;2022-08-19T12:24:48;29.80;47.97
35085;SHT85;21267;51.032;6.998;2022-08-19T12:27:17;29.76;48.15
35085;SHT85;21267;51.032;6.998;2022-08-19T12:30:05;29.67;48.21
35085;SHT85;21267;51.032;6.998;2022-08-19T12:32:32;30.14;47.40
35085;SHT85;21267;51.032;6.998;2022-08-19T12:34:59;29.77;48.08
35085;SHT85;21267;51.032;6.998;2022-08-19T12:37:26;30.38;46.95
35085;SHT85;21267;51.032;6.998;2022-08-19T12:39:52;29.73;48.00
35085;SHT85;21267;51.032;6.998;2022-08-19T12:42:19;30.04;47.59
35085;SHT85;21267;51.032;6.998;2022-08-19T12:44:48;29.90;47.78
35085;SHT85;21267;51.032;6.998;2022-08-19T12:47:14;30.08;47.77
35085;SHT85;21267;51.032;6.998;2022-08-19T12:49:41;29.83;48.36
35085;SHT85;21267;51.032;6.998;2022-08-19T12:52:21;30.12;47.67
35085;SHT85;21267;51.032;6.998;2022-08-19T12:54:49;30.27;47.66
35085;SHT85;21267;51.032;6.998;2022-08-19T12:57:21;30.42;46.16
35085;SHT85;21267;51.032;6.998;2022-08-19T13:00:09;30.79;45.72
35085;SHT85;21267;51.032;6.998;2022-08-19T13:02:42;30.89;45.27
35085;SHT85;21267;51.032;6.998;2022-08-19T13:05:15;30.04;46.80
35085;SHT85;21267;51.032;6.998;2022-08-19T13:07:42;30.20;46.68
35085;SHT85;21267;51.032;6.998;2022-08-19T13:10:14;29.09;47.64
35085;SHT85;21267;51.032;6.998;2022-08-19T13:12:46;29.29;47.80
35085;SHT85;21267;51.032;6.998;2022-08-19T13:15:14;29.45;46.22
35085;SHT85;21267;51.032;6.998;2022-08-19T13:17:43;29.43;46.58
35085;SHT85;21267;51.032;6.998;2022-08-19T13:20:10;29.56;46.51
35085;SHT85;21267;51.032;6.998;2022-08-19T13:22:37;29.46;46.16
35085;SHT85;21267;51.032;6.998;2022-08-19T13:25:06;28.79;48.17
35085;SHT85;21267;51.032;6.998;2022-08-19T13:27:33;29.29;47.28
35085;SHT85;21267;51.032;6.998;2022-08-19T13:30:01;29.60;47.01
35085;SHT85;21267;51.032;6.998;2022-08-19T13:32:46;30.01;46.24
35085;SHT85;21267;51.032;6.998;2022-08-19T13:35:49;30.33;45.43
35085;SHT85;21267;51.032;6.998;2022-08-19T13:38:23;30.65;45.16
35085;SHT85;21267;51.032;6.998;2022-08-19T13:40:51;29.88;45.92
35085;SHT85;21267;51.032;6.998;2022-08-19T13:43:20;30.21;45.96
35085;SHT85;21267;51.032;6.998;2022-08-19T13:45:53;30.18;45.13
35085;SHT85;21267;51.032;6.998;2022-08-19T13:48:24;30.62;44.22
35085;SHT85;21267;51.032;6.998;2022-08-19T13:50:52;29.98;45.22
35085;SHT85;21267;51.032;6.998;2022-08-19T13:53:20;30.05;45.02
35085;SHT85;21267;51.032;6.998;2022-08-19T13:55:47;30.15;45.12
35085;SHT85;21267;51.032;6.998;2022-08-19T13:58:14;30.78;43.60
35085;SHT85;21267;51.032;6.998;2022-08-19T14:00:41;30.61;43.36
35085;SHT85;21267;51.032;6.998;2022-08-19T14:03:15;31.20;42.62
35085;SHT85;21267;51.032;6.998;2022-08-19T14:05:42;31.74;41.43
35085;SHT85;21267;51.032;6.998;2022-08-19T14:08:09;31.78;41.58
35085;SHT85;21267;51.032;6.998;2022-08-19T14:10:35;32.13;40.57
35085;SHT85;21267;51.032;6.998;2022-08-19T14:13:03;31.31;41.06
35085;SHT85;21267;51.032;6.998;2022-08-19T14:15:30;31.27;41.27
35085;SHT85;21267;51.032;6.998;2022-08-19T14:17:57;30.27;42.68
35085;SHT85;21267;51.032;6.998;2022-08-19T14:20:24;30.78;42.61
35085;SHT85;21267;51.032;6.998;2022-08-19T14:22:52;31.64;41.64
35085;SHT85;21267;51.032;6.998;2022-08-19T14:25:25;31.77;41.31
35085;SHT85;21267;51.032;6.998;2022-08-19T14:27:51;31.78;41.74
35085;SHT85;21267;51.032;6.998;2022-08-19T14:30:30;32.60;39.92
35085;SHT85;21267;51.032;6.998;2022-08-19T14:32:59;31.91;40.36
35085;SHT85;21267;51.032;6.998;2022-08-19T14:35:27;31.48;40.94
35085;SHT85;21267;51.032;6.998;2022-08-19T14:37:55;31.94;40.22
35085;SHT85;21267;51.032;6.998;2022-08-19T14:40:24;31.42;39.74
35085;SHT85;21267;51.032;6.998;2022-08-19T14:42:57;31.00;40.27
35085;SHT85;21267;51.032;6.998;2022-08-19T14:45:30;31.23;40.24
35085;SHT85;21267;51.032;6.998;2022-08-19T14:47:57;31.85;39.63
35085;SHT85;21267;51.032;6.998;2022-08-19T14:50:26;30.55;41.41
35085;SHT85;21267;51.032;6.998;2022-08-19T14:53:04;30.70;41.63
35085;SHT85;21267;51.032;6.998;2022-08-19T14:55:41;30.65;41.60
35085;SHT85;21267;51.032;6.998;2022-08-19T14:58:08;30.73;41.41
35085;SHT85;21267;51.032;6.998;2022-08-19T15:00:55;31.58;40.46
35085;SHT85;21267;51.032;6.998;2022-08-19T15:03:22;31.82;39.43
35085;SHT85;21267;51.032;6.998;2022-08-19T15:05:48;31.62;39.49
35085;SHT85;21267;51.032;6.998;2022-08-19T15:08:15;32.02;39.35
35085;SHT85;21267;51.032;6.998;2022-08-19T15:10:42;31.30;40.44
35085;SHT85;21267;51.032;6.998;2022-08-19T15:13:08;31.07;40.95
35085;SHT85;21267;51.032;6.998;2022-08-19T15:15:36;30.53;41.50
35085;SHT85;21267;51.032;6.998;2022-08-19T15:18:03;32.06;39.64
35085;SHT85;21267;51.032;6.998;2022-08-19T15:20:30;32.01;39.12
35085;SHT85;21267;51.032;6.998;2022-08-19T15:22:57;32.40;37.95
35085;SHT85;21267;51.032;6.998;2022-08-19T15:25:25;31.42;38.38
35085;SHT85;21267;51.032;6.998;2022-08-19T15:27:53;31.95;38.57
35085;SHT85;21267;51.032;6.998;2022-08-19T15:30:22;31.30;39.21
35085;SHT85;21267;51.032;6.998;2022-08-19T15:32:49;31.53;39.07
35085;SHT85;21267;51.032;6.998;2022-08-19T15:35:18;31.35;39.06
35085;SHT85;21267;51.032;6.998;2022-08-19T15:37:48;30.65;40.03
35085;SHT85;21267;51.032;6.998;2022-08-19T15:40:15;29.67;41.83
35085;SHT85;21267;51.032;6.998;2022-08-19T15:42:42;29.85;41.77
35085;SHT85;21267;51.032;6.998;2022-08-19T15:45:11;30.05;41.49
35085;SHT85;21267;51.032;6.998;2022-08-19T15:47:39;30.78;40.70
35085;SHT85;21267;51.032;6.998;2022-08-19T15:50:24;31.51;39.30
35085;SHT85;21267;51.032;6.998;2022-08-19T15:52:54;31.42;39.28
35085;SHT85;21267;51.032;6.998;2022-08-19T15:55:28;30.72;39.76
35085;SHT85;21267;51.032;6.998;2022-08-19T15:58:05;30.18;40.68
35085;SHT85;21267;51.032;6.998;2022-08-19T16:00:56;30.18;40.66